Time;durP1;ratioP1;P1;durP2;ratioP2;P2;SDS_P1;SDS_P2;PMS_P1;PMS_P2;Temp;Humidity;BMP_temperature;BMP_pressure;BME280_temperature;BME280_humidity;BME280_pressure;Samples;Min_cycle;Max_cycle;Signal;HPM_P1;HPM_P2
2022/03/22 00:00:38;;;;;;;;;;;;;;;;;;;;;
2022/03/22 00:03:33;;;;;;;;;;;;;;;;;;;;;
2022/03/22 00:06:25;;;;;;;24.15;11.90;;;;;;;1.26;53.07;94098.09;5041919;28;20037;-88
2022/03/22 00:09:00;;;;;;;;;;;;;;;;;;;;;
2022/03/22 00:12:13;;;;;;;;;;;;;;;;;;;;;
2022/03/22 00:15:23;;;;;;;;;;;;;;;;;;;;;
2022/03/22 00:18:19;;;;;;;25.55;10.85;;;;;;;1.55;52.58;94109.97;5052959;28;20045;-89
2022/03/22 00:21:35;;;;;;;24.90;11.45;;;;;;;1.39;51.99;94072.34;5050388;28;20044;-88
2022/03/22 00:24:23;;;;;;;23.58;11.05;;;;;;;1.95;51.74;94124.84;5052734;28;20063;-90
2022/03/22 00:27:29;;;;;;;;;;;;;;;;;;;;;
2022/03/22 00:30:19;;;;;;;;;;;;;;;1.97;51.69;94128.03;5052277;28;20466;-89
2022/03/22 00:35:59;;;;;;;;;;;;;;;;;;;;;
2022/03/22 00:38:33;;;;;;;26.05;11.57;;;;;;;1.53;51.96;94091.31;5054095;28;20493;-88
2022/03/22 00:44:23;;;;;;;25.63;12.10;;;;;;;1.58;51.75;94111.38;5030374;28;20053;-88
2022/03/22 00:47:04;;;;;;;;;;;;;;;;;;;;;
2022/03/22 00:49:51;;;;;;;27.98;12.30;;;;;;;1.21;51.63;94074.63;5032263;28;20052;-89
2022/03/22 00:52:32;;;;;;;23.20;10.85;;;;;;;1.40;51.85;94106.72;5036763;28;20037;-88
2022/03/22 00:55:15;;;;;;;23.33;11.85;;;;;;;1.16;52.09;94066.69;5053036;28;20417;-87
2022/03/22 00:58:11;;;;;;;28.38;12.43;;;;;;;1.53;52.31;94129.22;5052413;28;20091;-88
2022/03/22 01:01:03;;;;;;;26.55;12.20;;;;;;;1.35;52.35;94096.97;5035687;28;20064;-88
2022/03/22 01:04:12;;;;;;;25.20;12.48;;;;;;;1.01;51.65;94054.69;5053355;28;20127;-88
2022/03/22 01:06:49;;;;;;;29.75;11.98;;;;;;;1.20;51.58;94073.06;5038508;28;20041;-89
2022/03/22 01:09:45;;;;;;;27.15;12.88;;;;;;;1.38;52.04;94106.91;5010220;28;20054;-89
2022/03/22 01:15:43;;;;;;;;;;;;;;;;;;;;;
2022/03/22 01:18:34;;;;;;;27.80;11.70;;;;;;;1.26;51.91;94100.66;5045214;28;20040;-88
2022/03/22 01:21:26;;;;;;;32.30;12.43;;;;;;;1.12;51.66;94076.56;5024875;28;20041;-89
2022/03/22 01:24:06;;;;;;;28.30;12.75;;;;;;;1.37;51.86;94118.19;5035556;28;20303;-88
2022/03/22 01:26:59;;;;;;;25.60;12.10;;;;;;;0.92;51.43;94053.22;5035609;28;20045;-89
2022/03/22 01:29:39;;;;;;;;;;;;;;;;;;;;;
2022/03/22 01:32:19;;;;;;;24.90;11.38;;;;;;;0.93;51.58;94054.84;5055758;28;20117;-89
2022/03/22 01:35:18;;;;;;;27.45;12.13;;;;;;;1.08;51.76;94082.28;5054882;28;20748;-90
2022/03/22 01:38:44;;;;;;;28.05;12.50;;;;;;;1.14;52.35;94094.44;5022236;28;20116;-89
2022/03/22 01:41:44;;;;;;;;;;;;;;;;;;;;;
2022/03/22 01:44:17;;;;;;;22.20;11.40;;;;;;;0.80;52.42;94052.16;5056848;28;20047;-88
2022/03/22 01:47:10;;;;;;;27.77;12.57;;;;;;;0.85;52.06;94069.66;5040114;28;20037;-88
2022/03/22 01:50:01;;;;;;;26.40;12.02;;;;;;;0.73;52.57;94062.41;5038922;28;20047;-89
2022/03/22 01:52:56;;;;;;;24.58;11.98;;;;;;;0.82;52.73;94068.25;5027689;28;20060;-89
2022/03/22 01:55:40;;;;;;;;;;;;;;;;;;;;;
2022/03/22 01:58:55;;;;;;;;;;;;;;;;;;;;;
2022/03/22 02:07:22;;;;;;;23.65;10.98;;;;;;;0.95;52.66;94070.91;5055266;28;20043;-89
2022/03/22 02:09:55;;;;;;;24.75;11.93;;;;;;;1.12;51.96;94092.03;5038005;28;20045;-88
2022/03/22 02:12:54;;;;;;;;;;;;;;;;;;;;;
2022/03/22 02:15:47;;;;;;;25.38;11.95;;;;;;;0.75;52.90;94044.19;5055101;28;20053;-88
2022/03/22 02:18:36;;;;;;;26.58;12.02;;;;;;;0.91;53.80;94087.75;5041943;28;20056;-88
2022/03/22 02:21:19;;;;;;;24.65;11.20;;;;;;;0.97;53.68;94102.47;5021881;28;20045;-89
2022/03/22 02:24:23;;;;;;;;;;;;;;;;;;;;;
2022/03/22 02:27:00;;;;;;;23.17;11.70;;;;;;;0.44;54.12;94037.59;5042771;28;20041;-89
2022/03/22 02:32:58;;;;;;;25.95;12.10;;;;;;;0.43;54.21;94041.19;5016907;28;20053;-88
2022/03/22 02:35:46;;;;;;;27.52;11.75;;;;;;;0.35;54.40;94038.72;5055887;28;20041;-89
2022/03/22 02:38:22;;;;;;;26.75;12.23;;;;;;;0.24;54.13;94028.91;5054566;28;20041;-89
2022/03/22 02:41:24;;;;;;;30.00;11.40;;;;;;;0.22;54.57;94036.03;5037761;28;20035;-89
2022/03/22 02:44:13;;;;;;;;;;;;;;;;;;;;;
2022/03/22 02:46:52;;;;;;;;;;;;;;;;;;;;;
2022/03/22 02:50:10;;;;;;;25.55;11.57;;;;;;;0.04;54.52;94026.94;5054392;28;20033;-89
2022/03/22 02:53:09;;;;;;;22.52;10.73;;;;;;;0.40;54.74;94086.13;5006879;28;20065;-88
2022/03/22 02:56:13;;;;;;;;;;;;;;;;;;;;;
2022/03/22 02:58:56;;;;;;;;;;;;;;;;;;;;;
2022/03/22 03:05:01;;;;;;;;;;;;;;;;;;;;;
2022/03/22 03:08:02;;;;;;;22.98;11.23;;;;;;;0.23;55.17;94081.44;5046589;28;20045;-89
2022/03/22 03:17:29;;;;;;;22.23;10.48;;;;;;;0.00;55.76;94059.22;5054780;28;20047;-89
2022/03/22 03:20:10;;;;;;;22.70;10.88;;;;;;;-0.05;55.55;94053.78;5026134;28;20055;-89
2022/03/22 03:23:05;;;;;;;24.65;10.68;;;;;;;0.34;55.67;94119.56;5037666;28;20032;-89
2022/03/22 03:26:03;;;;;;;21.98;10.35;;;;;;;0.10;55.79;94082.88;5039214;28;20041;-89
2022/03/22 03:28:42;;;;;;;20.55;9.73;;;;;;;-0.07;55.12;94056.56;5037807;28;20410;-89
2022/03/22 03:31:48;;;;;;;;;;;;;;;;;;;;;
2022/03/22 03:34:39;;;;;;;21.00;10.57;;;;;;;0.10;56.03;94077.72;5054607;28;20036;-88
2022/03/22 03:37:24;;;;;;;23.23;10.35;;;;;;;0.01;55.70;94065.16;5053859;28;20044;-88
2022/03/22 03:41:53;;;;;;;23.05;10.15;;;;;;;0.40;55.63;94129.13;5038760;28;20052;-89
2022/03/22 03:43:23;;;;;;;26.48;11.50;;;;;;;0.01;55.31;94078.03;5054720;28;20037;-89
2022/03/22 03:49:21;;;;;;;23.42;10.27;;;;;;;0.05;56.31;94082.63;5040594;28;20041;-89
2022/03/22 03:52:02;;;;;;;22.27;10.88;;;;;;;-0.09;56.20;94062.84;5037836;28;20040;-88
2022/03/22 03:55:05;;;;;;;21.92;10.68;;;;;;;0.34;56.13;94127.31;5023012;28;20037;-89
2022/03/22 04:01:35;;;;;;;;;;;;;;;;;;;;;
2022/03/22 04:04:19;;;;;;;26.90;11.82;;;;;;;0.00;55.93;94069.50;5052588;28;20037;-88
2022/03/22 04:06:55;;;;;;;;;;;;;;;;;;;;;
2022/03/22 04:09:31;;;;;;;23.33;10.43;;;;;;;0.01;56.13;94072.88;5053116;28;20033;-88
2022/03/22 04:12:31;;;;;;;26.83;11.93;;;;;;;0.03;56.01;94076.84;5052841;28;20033;-90
2022/03/22 04:15:25;;;;;;;24.10;11.60;;;;;;;-0.01;56.14;94068.69;5049480;28;20048;-88
2022/03/22 04:18:42;;;;;;;33.38;11.43;;;;;;;0.38;56.27;94136.25;5052625;28;20040;-90
2022/03/22 04:21:17;;;;;;;23.17;11.00;;;;;;;-0.06;56.19;94068.44;5052188;28;20135;-88
2022/03/22 04:24:21;;;;;;;;;;;;;;;;;;;;;
2022/03/22 04:33:25;;;;;;;25.83;12.18;;;;;;;0.14;56.99;94122.72;5043731;28;20037;-89
2022/03/22 04:35:59;;;;;;;30.42;12.55;;;;;;;-0.04;57.14;94099.97;5033656;28;20046;-89
2022/03/22 04:42:06;;;;;;;27.90;12.15;;;;;;;0.08;57.24;94120.88;5051745;28;20036;-88
2022/03/22 04:44:55;;;;;;;25.92;11.55;;;;;;;0.10;56.69;94118.13;5050143;28;20033;-88
2022/03/22 04:47:45;;;;;;;23.98;10.68;;;;;;;-0.23;57.44;94077.34;5052504;28;20482;-89
2022/03/22 04:50:33;;;;;;;24.38;10.32;;;;;;;-0.12;56.86;94105.19;5051989;28;20033;-89
2022/03/22 04:57:01;;;;;;;;;;;;;;;;;;;;;
2022/03/22 04:59:57;;;;;;;21.40;10.10;;;;;;;-0.22;56.99;94087.47;5049764;28;20494;-89
2022/03/22 05:02:59;;;;;;;;;;;;;;;;;;;;;
2022/03/22 05:09:22;;;;;;;18.77;8.98;;;;;;;-0.09;56.62;94101.47;4998399;28;20038;-88
2022/03/22 05:12:13;;;;;;;22.83;10.40;;;;;;;-0.19;56.56;94090.66;5015604;28;20537;-88
2022/03/22 05:18:11;;;;;;;21.02;10.27;;;;;;;-0.23;56.83;94103.88;5029921;28;20056;-89
2022/03/22 05:20:44;;;;;;;20.70;9.75;;;;;;;-0.11;56.66;94126.59;5035121;28;20041;-87
2022/03/22 05:23:09;;;;;;;20.17;10.00;;;;;;;-0.01;56.88;94145.94;5049186;28;20045;-86
2022/03/22 05:25:37;;;;;;;26.65;10.10;;;;;;;0.04;56.38;94155.69;5055279;28;20037;-89
2022/03/22 05:28:03;;;;;;;20.45;9.82;;;;;;;0.13;56.70;94164.91;5049049;28;20041;-87
2022/03/22 05:30:32;;;;;;;22.92;10.15;;;;;;;-0.09;56.84;94134.94;5051970;28;20029;-86
2022/03/22 05:32:59;;;;;;;23.13;10.45;;;;;;;-0.30;56.31;94100.44;5037855;28;20029;-87
2022/03/22 05:35:34;;;;;;;24.35;10.85;;;;;;;-0.16;56.11;94113.47;5033196;28;20124;-87
2022/03/22 05:38:03;;;;;;;18.90;9.73;;;;;;;-0.13;55.89;94113.13;5045970;28;20037;-87
2022/03/22 05:40:34;;;;;;;24.05;10.48;;;;;;;-0.01;56.08;94130.47;5068390;28;20036;-88
2022/03/22 05:43:03;;;;;;;27.15;11.20;;;;;;;0.38;55.85;94178.28;5053273;28;20040;-86
2022/03/22 05:45:34;;;;;;;23.67;11.13;;;;;;;0.16;55.45;94128.50;5043211;28;20064;-87
2022/03/22 05:48:00;;;;;;;24.70;10.95;;;;;;;0.22;54.67;94116.66;5052589;28;20044;-89
2022/03/22 05:50:30;;;;;;;25.38;11.73;;;;;;;0.57;54.12;94145.97;5053169;28;20033;-86
2022/03/22 05:52:58;;;;;;;24.27;11.90;;;;;;;1.37;52.50;94151.75;5038004;28;20143;-86
2022/03/22 05:55:23;;;;;;;27.80;12.52;;;;;;;2.81;48.16;94121.69;5053475;28;20108;-87
2022/03/22 05:57:51;;;;;;;26.25;11.50;;;;;;;4.30;44.64;94126.19;5053851;28;20492;-87
2022/03/22 06:00:18;;;;;;;26.27;11.80;;;;;;;5.66;42.66;94128.38;5052672;28;20035;-89
2022/03/22 06:02:51;;;;;;;25.83;11.43;;;;;;;6.65;40.54;94119.44;5006962;28;20058;-87
2022/03/22 06:05:19;;;;;;;26.95;12.32;;;;;;;7.72;38.46;94110.72;5002000;28;20467;-88
2022/03/22 06:07:45;;;;;;;24.77;12.35;;;;;;;8.57;36.58;94115.53;5017629;28;20033;-86
2022/03/22 06:10:14;;;;;;;24.80;11.02;;;;;;;9.40;34.97;94140.19;5017404;28;20044;-87
2022/03/22 06:12:45;;;;;;;20.67;11.65;;;;;;;10.34;33.84;94149.88;5000523;28;20471;-86
2022/03/22 06:15:18;;;;;;;22.17;11.75;;;;;;;11.19;32.48;94154.66;5017415;28;20044;-86
2022/03/22 06:17:45;;;;;;;20.88;11.50;;;;;;;11.89;30.78;94155.53;5025132;28;20498;-88
2022/03/22 06:20:12;;;;;;;23.48;11.82;;;;;;;12.88;29.49;94163.56;4990849;28;20037;-89
2022/03/22 06:22:45;;;;;;;22.80;11.70;;;;;;;13.51;28.61;94156.31;4991216;28;20049;-88
2022/03/22 06:25:12;;;;;;;23.77;11.90;;;;;;;14.32;27.40;94167.78;4996580;28;20063;-90
2022/03/22 06:27:41;;;;;;;21.38;11.60;;;;;;;14.75;26.64;94141.06;5007573;28;20644;-86
2022/03/22 06:30:09;;;;;;;36.13;13.27;;;;;;;15.40;25.81;94154.09;5011795;28;20040;-86
2022/03/22 06:32:51;;;;;;;24.58;12.65;;;;;;;16.28;24.60;94170.78;5016857;28;20364;-86
2022/03/22 06:35:24;;;;;;;30.27;12.73;;;;;;;16.41;24.70;94149.00;5012548;28;20428;-86
2022/03/22 06:37:51;;;;;;;23.35;12.52;;;;;;;17.10;23.51;94163.78;5003055;28;20116;-87
2022/03/22 06:40:19;;;;;;;26.08;12.80;;;;;;;17.73;22.53;94154.63;5012631;28;20033;-86
2022/03/22 06:42:46;;;;;;;24.25;13.50;;;;;;;18.09;22.13;94125.69;4999737;28;20025;-85
2022/03/22 06:45:12;;;;;;;21.05;12.73;;;;;;;18.78;21.22;94131.03;5035080;28;20116;-85
2022/03/22 06:47:39;;;;;;;24.85;13.60;;;;;;;19.39;20.40;94146.72;5016554;28;20075;-88
2022/03/22 06:50:06;;;;;;;26.25;14.07;;;;;;;19.80;19.99;94159.84;5005066;28;20037;-85
2022/03/22 06:52:32;;;;;;;28.70;14.95;;;;;;;20.02;19.79;94159.03;5016670;28;20026;-85
2022/03/22 06:54:58;;;;;;;25.95;14.07;;;;;;;20.02;19.19;94119.16;4984684;28;20048;-86
2022/03/22 06:57:24;;;;;;;23.45;13.57;;;;;;;20.70;18.72;94138.38;5001027;28;20047;-86
2022/03/22 06:59:49;;;;;;;25.38;14.43;;;;;;;20.97;17.59;94132.03;5016590;28;20112;-85
2022/03/22 07:02:18;;;;;;;24.73;14.57;;;;;;;21.38;17.56;94144.09;5031155;28;20103;-87
2022/03/22 07:04:45;;;;;;;26.33;14.38;;;;;;;22.30;17.27;94163.66;5020517;28;20147;-85
2022/03/22 07:07:10;;;;;;;65.30;16.52;;;;;;;20.77;18.43;94169.84;5020624;28;20501;-85
2022/03/22 07:09:36;;;;;;;43.97;15.32;;;;;;;17.03;22.09;94169.41;5036644;28;20033;-86
2022/03/22 07:12:01;;;;;;;32.60;14.80;;;;;;;18.63;21.29;94184.34;5054492;28;20048;-85
2022/03/22 07:14:28;;;;;;;24.17;13.45;;;;;;;19.02;20.35;94181.19;5036879;28;20356;-86
2022/03/22 07:16:54;;;;;;;24.45;14.50;;;;;;;19.41;20.30;94187.00;5020341;28;20041;-85
2022/03/22 07:19:22;;;;;;;29.85;14.98;;;;;;;19.31;19.93;94180.84;5036460;28;20037;-86
2022/03/22 07:21:49;;;;;;;25.33;14.25;;;;;;;21.11;17.67;94179.78;5036361;28;20102;-85
2022/03/22 07:24:18;;;;;;;25.85;14.90;;;;;;;20.02;18.54;94188.28;5036511;28;20037;-85
2022/03/22 07:26:45;;;;;;;23.60;14.55;;;;;;;20.27;18.85;94189.50;5054667;28;20045;-85
2022/03/22 07:29:13;;;;;;;31.35;15.73;;;;;;;18.90;20.70;94186.22;5054397;28;20033;-85
2022/03/22 07:31:39;;;;;;;30.45;15.82;;;;;;;17.72;21.83;94180.34;5049246;28;20434;-85
2022/03/22 07:34:06;;;;;;;31.92;16.02;;;;;;;16.98;22.91;94191.44;5054575;28;20052;-85
2022/03/22 07:36:32;;;;;;;26.23;13.55;;;;;;;14.69;25.20;94174.53;5019999;28;20099;-85
2022/03/22 07:38:58;;;;;;;25.80;14.85;;;;;;;13.28;27.32;94198.91;5053848;28;20021;-85
2022/03/22 07:41:24;;;;;;;27.13;14.80;;;;;;;11.81;28.98;94193.47;5036053;28;20429;-85
2022/03/22 07:43:49;;;;;;;25.50;14.55;;;;;;;9.18;34.13;94190.53;5037448;28;20619;-84
2022/03/22 07:46:15;;;;;;;31.33;15.25;;;;;;;9.90;33.02;94214.41;5032227;28;20036;-85
2022/03/22 07:48:40;;;;;;;26.45;12.48;;;;;;;9.79;33.67;94214.25;5033192;28;20044;-85
2022/03/22 07:53:50;;;;;;;30.00;13.70;;;;;;;9.18;35.04;94227.09;5016010;28;20080;-84
2022/03/22 07:56:15;;;;;;;28.48;13.18;;;;;;;9.22;34.54;94184.84;5020644;28;20083;-85
2022/03/22 07:58:41;;;;;;;27.00;12.90;;;;;;;8.84;35.40;94205.31;5036281;28;20096;-85
2022/03/22 08:01:07;;;;;;;29.83;13.20;;;;;;;8.20;35.69;94230.66;5034174;28;20217;-85
2022/03/22 08:03:32;;;;;;;31.40;12.85;;;;;;;8.42;35.31;94226.47;5030704;28;20033;-85
2022/03/22 08:06:00;;;;;;;27.05;13.25;;;;;;;8.50;35.07;94228.69;5032359;28;20046;-87
2022/03/22 08:08:25;;;;;;;29.60;13.73;;;;;;;8.08;35.25;94218.41;5031883;28;20544;-85
2022/03/22 08:10:51;;;;;;;28.00;14.07;;;;;;;7.96;37.48;94235.84;5037843;28;20131;-85
2022/03/22 08:13:17;;;;;;;27.25;14.25;;;;;;;7.15;38.11;94235.50;5051696;28;20033;-85
2022/03/22 08:15:43;;;;;;;23.92;13.35;;;;;;;7.57;37.73;94232.09;5018999;28;20126;-85
2022/03/22 08:18:10;;;;;;;28.30;13.23;;;;;;;7.47;38.05;94243.84;5031995;28;20037;-85
2022/03/22 08:20:37;;;;;;;29.77;13.77;;;;;;;7.82;36.89;94239.72;5043240;28;20107;-85
2022/03/22 08:23:04;;;;;;;26.85;13.18;;;;;;;7.47;36.50;94219.59;5036748;28;20041;-84
2022/03/22 08:25:36;;;;;;;31.20;15.30;;;;;;;7.90;36.63;94240.19;5052295;28;20033;-84
2022/03/22 08:28:07;;;;;;;24.67;13.23;;;;;;;7.04;38.67;94221.41;5044070;28;20045;-85
2022/03/22 08:30:33;;;;;;;36.25;15.82;;;;;;;6.82;39.84;94241.13;5032068;28;20472;-85
2022/03/22 08:33:00;;;;;;;31.58;14.13;;;;;;;6.94;40.42;94241.22;5033036;28;20124;-85
2022/03/22 08:35:27;;;;;;;33.88;15.77;;;;;;;7.41;39.63;94233.53;5052049;28;20041;-85
2022/03/22 08:37:54;;;;;;;32.03;14.52;;;;;;;7.86;38.37;94240.88;5050825;28;20505;-85
2022/03/22 08:40:21;;;;;;;35.53;16.10;;;;;;;8.03;37.92;94241.75;5034210;28;20075;-86
2022/03/22 08:42:48;;;;;;;39.55;16.38;;;;;;;8.50;37.42;94246.97;5034183;28;20037;-88
2022/03/22 08:45:19;;;;;;;35.22;13.65;;;;;;;8.56;36.42;94232.22;5051369;28;20033;-85
2022/03/22 08:47:46;;;;;;;28.98;15.60;;;;;;;8.55;36.29;94218.34;5050681;28;20037;-85
2022/03/22 08:50:14;;;;;;;28.45;15.02;;;;;;;9.25;36.13;94229.56;5051026;28;20037;-85
2022/03/22 08:52:41;;;;;;;33.22;16.08;;;;;;;9.53;34.65;94238.41;5052385;28;20071;-85
2022/03/22 08:55:09;;;;;;;31.42;15.75;;;;;;;9.15;35.61;94219.75;5052851;28;20089;-85
2022/03/22 08:57:35;;;;;;;30.48;15.65;;;;;;;9.35;36.28;94237.59;5050888;28;20037;-85
2022/03/22 09:00:08;;;;;;;30.20;14.85;;;;;;;7.71;37.19;94246.50;5033478;28;20134;-85
2022/03/22 09:02:35;;;;;;;26.15;13.00;;;;;;;7.54;37.90;94217.69;5019070;28;20050;-85
2022/03/22 09:07:47;;;;;;;23.60;13.32;;;;;;;7.27;38.36;94236.34;5000674;28;20041;-84
2022/03/22 09:10:14;;;;;;;26.33;14.45;;;;;;;7.48;37.20;94245.44;4994828;28;20034;-85
2022/03/22 09:12:40;;;;;;;23.38;12.63;;;;;;;7.44;36.82;94243.50;5030924;28;20041;-87
2022/03/22 09:15:06;;;;;;;25.83;13.65;;;;;;;7.89;36.19;94235.97;4998664;28;20041;-85
2022/03/22 09:17:32;;;;;;;29.75;15.25;;;;;;;7.69;36.67;94215.44;4993622;28;20472;-85
2022/03/22 09:19:57;;;;;;;27.00;13.55;;;;;;;7.50;36.67;94240.03;4991337;28;20053;-84
2022/03/22 09:22:23;;;;;;;27.25;14.05;;;;;;;7.36;36.81;94217.75;4978971;28;20502;-85
2022/03/22 09:24:49;;;;;;;23.73;12.50;;;;;;;7.61;35.92;94218.41;4986411;28;20414;-84
2022/03/22 09:27:14;;;;;;;32.70;12.07;;;;;;;7.85;35.04;94234.84;5030763;28;20030;-85
2022/03/22 09:29:40;;;;;;;24.95;12.95;;;;;;;8.05;35.05;94234.50;5032393;28;20120;-85
2022/03/22 09:32:06;;;;;;;23.50;11.90;;;;;;;7.42;34.53;94243.72;4997844;28;20041;-85
2022/03/22 09:34:32;;;;;;;22.27;12.30;;;;;;;8.26;34.99;94243.59;4998413;28;20537;-85
2022/03/22 09:37:00;;;;;;;25.98;12.93;;;;;;;8.63;32.83;94240.72;4998364;28;20084;-86
2022/03/22 09:39:25;;;;;;;22.23;11.27;;;;;;;8.44;33.12;94226.22;4998051;28;20045;-85
2022/03/22 09:41:51;;;;;;;20.17;10.88;;;;;;;8.40;32.98;94246.78;4997727;28;20045;-85
2022/03/22 09:44:18;;;;;;;18.50;9.98;;;;;;;8.27;31.92;94239.94;4994352;28;20076;-84
2022/03/22 09:46:51;;;;;;;22.23;11.63;;;;;;;8.59;31.96;94238.78;4994872;28;20038;-86
2022/03/22 09:49:17;;;;;;;20.42;10.57;;;;;;;8.19;31.25;94223.84;4983781;28;20065;-85
2022/03/22 09:51:45;;;;;;;24.73;11.27;;;;;;;8.31;31.58;94227.25;5033546;28;20474;-85
2022/03/22 09:54:19;;;;;;;21.00;11.75;;;;;;;8.67;30.81;94230.56;5017478;28;20471;-85
2022/03/22 09:56:46;;;;;;;23.50;10.48;;;;;;;8.81;31.29;94231.13;5010080;28;20414;-84
2022/03/22 09:59:14;;;;;;;21.83;10.85;;;;;;;8.77;29.88;94232.63;5017481;28;20076;-85
2022/03/22 10:01:40;;;;;;;24.25;11.27;;;;;;;7.99;30.43;94219.75;5020792;28;20056;-84
2022/03/22 10:04:08;;;;;;;24.60;11.85;;;;;;;8.66;30.39;94229.00;5019341;28;20044;-85
2022/03/22 10:06:35;;;;;;;27.63;11.52;;;;;;;8.47;30.21;94210.91;5037397;28;20037;-85
2022/03/22 10:09:05;;;;;;;17.23;10.05;;;;;;;8.13;30.13;94226.34;5037519;28;20421;-85
2022/03/22 10:11:39;;;;;;;23.58;12.00;;;;;;;8.35;30.39;94217.91;5037697;28;20045;-86
2022/03/22 10:14:07;;;;;;;19.70;11.52;;;;;;;8.35;30.45;94223.13;5054904;28;20040;-85
2022/03/22 10:16:48;;;;;;;20.80;10.85;;;;;;;8.83;29.91;94222.03;5055541;28;20040;-84
2022/03/22 10:19:19;;;;;;;20.88;11.68;;;;;;;9.15;29.56;94198.06;5035400;28;20037;-85
2022/03/22 10:21:45;;;;;;;20.40;10.48;;;;;;;8.81;29.26;94218.06;5055046;28;20037;-85
2022/03/22 10:24:15;;;;;;;16.63;8.70;;;;;;;9.03;28.33;94218.19;5020552;28;20037;-85
2022/03/22 10:26:44;;;;;;;19.05;10.65;;;;;;;9.26;29.09;94218.09;5037147;28;20041;-85
2022/03/22 10:29:11;;;;;;;19.05;10.13;;;;;;;9.58;27.23;94214.97;5038063;28;20056;-85
2022/03/22 10:31:39;;;;;;;21.60;11.25;;;;;;;9.35;27.97;94211.47;5020605;28;20056;-86
2022/03/22 10:34:13;;;;;;;21.38;10.20;;;;;;;9.00;26.48;94198.56;5035228;28;20038;-85
2022/03/22 10:36:41;;;;;;;19.80;11.20;;;;;;;9.49;27.47;94203.31;5036413;28;20120;-85
2022/03/22 10:39:09;;;;;;;21.75;10.35;;;;;;;9.25;28.30;94206.06;5036587;28;20078;-86
2022/03/22 10:41:45;;;;;;;17.60;8.68;;;;;;;9.45;28.14;94212.66;5036763;28;20037;-85
2022/03/22 10:44:18;;;;;;;21.60;9.00;;;;;;;9.14;27.52;94206.91;5036352;28;20072;-85
2022/03/22 10:46:46;;;;;;;22.15;11.57;;;;;;;9.59;28.35;94200.84;5037266;28;20044;-86
2022/03/22 10:49:17;;;;;;;21.52;10.95;;;;;;;9.70;27.65;94181.66;5041107;28;20059;-87
2022/03/22 10:51:46;;;;;;;17.73;9.32;;;;;;;9.43;28.42;94201.63;5050540;28;20103;-85
2022/03/22 10:54:17;;;;;;;19.50;11.60;;;;;;;9.21;27.84;94185.84;5054317;28;20033;-86
2022/03/22 10:56:55;;;;;;;23.20;11.73;;;;;;;9.73;28.34;94190.88;5037031;28;20044;-85
2022/03/22 10:59:23;;;;;;;19.52;10.20;;;;;;;9.97;27.35;94175.78;5037293;28;20041;-85
2022/03/22 11:01:50;;;;;;;17.27;9.23;;;;;;;10.08;27.58;94177.50;5040854;28;20048;-85
2022/03/22 11:04:17;;;;;;;22.85;11.95;;;;;;;9.41;27.12;94173.13;5035349;28;20138;-85
2022/03/22 11:06:47;;;;;;;26.52;12.43;;;;;;;9.79;28.93;94180.25;5036156;28;20052;-85
2022/03/22 11:09:24;;;;;;;20.52;12.15;;;;;;;9.32;28.02;94183.19;5053860;28;20066;-85
2022/03/22 11:11:50;;;;;;;22.55;12.00;;;;;;;9.23;28.06;94187.22;5052956;28;20119;-84
2022/03/22 11:14:17;;;;;;;17.83;11.38;;;;;;;9.29;27.93;94186.25;5052365;28;20100;-85
2022/03/22 11:16:47;;;;;;;17.10;9.45;;;;;;;9.76;27.77;94179.94;5027777;28;20052;-86
2022/03/22 11:19:15;;;;;;;20.13;11.15;;;;;;;9.46;27.86;94178.44;5053972;28;20044;-86
2022/03/22 11:21:41;;;;;;;18.77;9.80;;;;;;;9.52;27.46;94174.06;5052195;28;20124;-87
2022/03/22 11:24:13;;;;;;;23.63;11.55;;;;;;;9.65;27.60;94172.97;5052510;28;20033;-86
2022/03/22 11:26:45;;;;;;;22.02;11.73;;;;;;;10.05;28.10;94162.31;5052630;28;20132;-87
2022/03/22 11:29:12;;;;;;;21.55;12.23;;;;;;;9.80;27.62;94167.97;5035874;28;20071;-87
2022/03/22 11:31:41;;;;;;;23.60;12.27;;;;;;;10.41;27.55;94175.88;5052839;28;20136;-87
2022/03/22 11:34:11;;;;;;;19.67;11.07;;;;;;;10.68;27.13;94169.91;5053725;28;20029;-86
2022/03/22 11:36:40;;;;;;;23.05;12.10;;;;;;;10.47;26.75;94169.69;5054062;28;20048;-87
2022/03/22 11:39:06;;;;;;;21.27;11.95;;;;;;;10.12;27.42;94157.69;5052672;28;20120;-86
2022/03/22 11:44:21;;;;;;;18.17;10.55;;;;;;;10.06;27.54;94153.41;5052392;28;20039;-86
2022/03/22 11:47:00;;;;;;;19.10;10.07;;;;;;;9.86;27.35;94132.19;5052049;28;20120;-87
2022/03/22 11:49:26;;;;;;;19.13;11.15;;;;;;;10.06;26.85;94126.44;5034928;28;20120;-86
2022/03/22 11:52:12;;;;;;;20.17;9.93;;;;;;;9.61;27.53;94141.28;5014830;28;20307;-87
2022/03/22 11:54:39;;;;;;;23.30;12.63;;;;;;;9.64;27.51;94146.03;5032984;28;20116;-87
2022/03/22 11:57:06;;;;;;;23.40;12.63;;;;;;;10.38;28.11;94132.66;5015922;28;20033;-87
2022/03/22 11:59:43;;;;;;;23.52;10.93;;;;;;;10.96;26.83;94126.94;5034993;28;20059;-87
2022/03/22 12:02:17;;;;;;;22.20;11.48;;;;;;;10.86;26.11;94132.91;5050547;28;20068;-87
2022/03/22 12:04:44;;;;;;;24.40;12.38;;;;;;;11.17;26.34;94139.22;5041359;28;20052;-87
2022/03/22 12:07:13;;;;;;;23.42;12.30;;;;;;;11.39;26.75;94136.53;4998850;28;20030;-87
2022/03/22 12:09:41;;;;;;;23.25;12.93;;;;;;;11.05;26.74;94138.56;5051214;28;20044;-88
2022/03/22 12:12:09;;;;;;;22.50;12.43;;;;;;;11.17;25.72;94118.25;5052202;28;20033;-87
2022/03/22 12:14:36;;;;;;;24.88;12.48;;;;;;;10.71;26.17;94128.28;5014306;28;20037;-87
2022/03/22 12:17:03;;;;;;;25.80;12.32;;;;;;;11.07;26.84;94131.25;5031914;28;20566;-87
2022/03/22 12:19:31;;;;;;;29.45;12.77;;;;;;;10.74;26.08;94124.38;5047866;28;20074;-86
2022/03/22 12:21:58;;;;;;;21.48;11.90;;;;;;;10.92;26.60;94126.69;5053517;28;20032;-87
2022/03/22 12:24:25;;;;;;;20.15;10.18;;;;;;;11.35;26.31;94127.56;5051886;28;20040;-87
2022/03/22 12:26:51;;;;;;;28.20;12.77;;;;;;;11.23;25.95;94129.53;5035622;28;20044;-86
2022/03/22 12:29:18;;;;;;;21.50;9.90;;;;;;;10.79;25.24;94121.81;5051934;28;20049;-86
2022/03/22 12:31:52;;;;;;;25.90;12.35;;;;;;;11.33;26.16;94113.91;5051964;28;20037;-87
2022/03/22 12:34:18;;;;;;;22.20;12.73;;;;;;;10.67;26.60;94092.34;5031500;28;20038;-88
2022/03/22 12:36:45;;;;;;;23.38;11.70;;;;;;;11.20;25.11;94109.09;5042814;28;20082;-87
2022/03/22 12:39:13;;;;;;;23.27;11.85;;;;;;;10.34;25.97;94076.59;5034835;28;20045;-87
2022/03/22 12:41:39;;;;;;;27.90;12.77;;;;;;;10.92;26.50;94105.72;5035423;28;20355;-86
2022/03/22 12:44:06;;;;;;;23.50;12.80;;;;;;;11.07;25.67;94104.25;5051444;28;20052;-87
2022/03/22 12:46:32;;;;;;;20.33;12.07;;;;;;;10.79;25.11;94099.03;5035007;28;20036;-87
2022/03/22 12:48:58;;;;;;;24.98;12.13;;;;;;;10.90;24.72;94083.41;5053213;28;20167;-86
2022/03/22 12:51:25;;;;;;;23.30;11.98;;;;;;;11.24;25.47;94074.25;5035226;28;20071;-87
2022/03/22 12:53:54;;;;;;;23.40;10.82;;;;;;;11.33;26.38;94076.44;5051862;28;20048;-87
2022/03/22 12:56:21;;;;;;;21.08;12.23;;;;;;;11.54;24.86;94087.84;5051823;28;20036;-87
2022/03/22 12:58:49;;;;;;;22.70;12.80;;;;;;;11.87;24.99;94082.28;4998885;28;20072;-87
2022/03/22 13:01:16;;;;;;;23.48;13.13;;;;;;;11.96;25.42;94084.44;5051130;28;20041;-87
2022/03/22 13:03:44;;;;;;;23.23;12.45;;;;;;;11.31;25.45;94079.28;5035136;28;20068;-86
2022/03/22 13:06:10;;;;;;;26.33;13.45;;;;;;;11.43;25.88;94058.13;5052057;28;20025;-88
2022/03/22 13:11:35;;;;;;;27.15;13.57;;;;;;;11.25;25.92;94075.81;4970854;28;20058;-87
2022/03/22 13:16:55;;;;;;;25.85;12.60;;;;;;;11.51;25.41;94075.25;5064975;28;20052;-87
2022/03/22 13:19:21;;;;;;;25.75;13.05;;;;;;;11.55;25.80;94066.63;5051847;28;20371;-87
2022/03/22 13:21:47;;;;;;;25.95;12.23;;;;;;;11.49;25.29;94040.59;5052933;28;20037;-87
2022/03/22 13:24:21;;;;;;;26.65;13.68;;;;;;;11.67;25.13;94054.09;5018662;28;20048;-87
2022/03/22 13:26:58;;;;;;;21.67;12.45;;;;;;;11.33;25.71;94045.75;5053004;28;20473;-87
2022/03/22 13:29:39;;;;;;;20.98;11.18;;;;;;;11.88;25.29;94041.88;5021746;28;20040;-87
2022/03/22 13:32:06;;;;;;;21.42;12.57;;;;;;;11.93;25.47;94035.84;5056196;28;20124;-87
2022/03/22 13:34:35;;;;;;;22.83;11.57;;;;;;;11.42;24.68;94033.75;5056911;28;20158;-87
2022/03/22 13:37:18;;;;;;;23.27;13.05;;;;;;;10.61;26.02;94044.38;5056747;28;20044;-87
2022/03/22 13:39:49;;;;;;;20.67;11.75;;;;;;;11.21;25.84;94042.50;5056984;28;20478;-87
2022/03/22 13:42:17;;;;;;;22.52;13.23;;;;;;;11.50;25.16;94018.56;5054391;28;20501;-87
2022/03/22 13:44:52;;;;;;;22.00;11.85;;;;;;;11.91;25.47;94034.53;5057026;28;20500;-87